sensor_id;sensor_type;location;lat;lon;timestamp;temperature;humidity
69895;DHT22;57172;52.034;5.090;2022-07-17T00:00:41;16.50;60.60
69895;DHT22;57172;52.034;5.090;2022-07-17T00:03:16;16.50;60.60
69895;DHT22;57172;52.034;5.090;2022-07-17T00:05:44;16.50;60.70
69895;DHT22;57172;52.034;5.090;2022-07-17T00:08:12;16.40;60.70
69895;DHT22;57172;52.034;5.090;2022-07-17T00:10:41;16.40;60.70
69895;DHT22;57172;52.034;5.090;2022-07-17T00:13:09;16.40;61.10
69895;DHT22;57172;52.034;5.090;2022-07-17T00:15:37;16.30;61.20
69895;DHT22;57172;52.034;5.090;2022-07-17T00:18:04;16.30;61.10
69895;DHT22;57172;52.034;5.090;2022-07-17T00:20:34;16.30;61.20
69895;DHT22;57172;52.034;5.090;2022-07-17T00:23:01;16.30;61.20
69895;DHT22;57172;52.034;5.090;2022-07-17T00:25:29;16.20;61.40
69895;DHT22;57172;52.034;5.090;2022-07-17T00:27:56;16.20;61.60
69895;DHT22;57172;52.034;5.090;2022-07-17T00:30:23;16.10;61.40
69895;DHT22;57172;52.034;5.090;2022-07-17T00:32:50;16.10;61.70
69895;DHT22;57172;52.034;5.090;2022-07-17T00:35:17;16.10;61.80
69895;DHT22;57172;52.034;5.090;2022-07-17T00:37:47;16.10;61.90
69895;DHT22;57172;52.034;5.090;2022-07-17T00:40:21;16.00;62.20
69895;DHT22;57172;52.034;5.090;2022-07-17T00:42:49;16.00;62.30
69895;DHT22;57172;52.034;5.090;2022-07-17T00:45:17;16.00;62.10
69895;DHT22;57172;52.034;5.090;2022-07-17T00:47:57;15.90;62.40
69895;DHT22;57172;52.034;5.090;2022-07-17T00:50:36;15.90;62.50
69895;DHT22;57172;52.034;5.090;2022-07-17T00:53:04;15.90;62.40
69895;DHT22;57172;52.034;5.090;2022-07-17T00:55:31;15.80;62.50
69895;DHT22;57172;52.034;5.090;2022-07-17T00:58:24;15.80;62.50
69895;DHT22;57172;52.034;5.090;2022-07-17T01:00:52;15.80;62.50
69895;DHT22;57172;52.034;5.090;2022-07-17T01:03:22;15.80;62.50
69895;DHT22;57172;52.034;5.090;2022-07-17T01:05:50;15.80;62.80
69895;DHT22;57172;52.034;5.090;2022-07-17T01:08:17;15.70;62.80
69895;DHT22;57172;52.034;5.090;2022-07-17T01:10:44;15.60;63.00
69895;DHT22;57172;52.034;5.090;2022-07-17T01:13:11;15.60;63.10
69895;DHT22;57172;52.034;5.090;2022-07-17T01:15:40;15.60;63.30
69895;DHT22;57172;52.034;5.090;2022-07-17T01:18:10;15.60;63.50
69895;DHT22;57172;52.034;5.090;2022-07-17T01:20:41;15.50;63.60
69895;DHT22;57172;52.034;5.090;2022-07-17T01:23:09;15.50;63.70
69895;DHT22;57172;52.034;5.090;2022-07-17T01:25:37;15.50;63.70
69895;DHT22;57172;52.034;5.090;2022-07-17T01:28:04;15.50;64.10
69895;DHT22;57172;52.034;5.090;2022-07-17T01:30:32;15.50;64.10
69895;DHT22;57172;52.034;5.090;2022-07-17T01:33:00;15.40;64.20
69895;DHT22;57172;52.034;5.090;2022-07-17T01:35:28;15.40;64.50
69895;DHT22;57172;52.034;5.090;2022-07-17T01:37:55;15.40;64.50
69895;DHT22;57172;52.034;5.090;2022-07-17T01:40:22;15.40;64.50
69895;DHT22;57172;52.034;5.090;2022-07-17T01:42:49;15.40;64.70
69895;DHT22;57172;52.034;5.090;2022-07-17T01:45:18;15.40;64.80
69895;DHT22;57172;52.034;5.090;2022-07-17T01:47:47;15.30;65.10
69895;DHT22;57172;52.034;5.090;2022-07-17T01:50:14;15.30;65.00
69895;DHT22;57172;52.034;5.090;2022-07-17T01:52:43;15.30;65.00
69895;DHT22;57172;52.034;5.090;2022-07-17T01:55:12;15.30;65.30
69895;DHT22;57172;52.034;5.090;2022-07-17T01:57:40;15.20;65.30
69895;DHT22;57172;52.034;5.090;2022-07-17T02:00:10;15.20;65.40
69895;DHT22;57172;52.034;5.090;2022-07-17T02:02:38;15.20;65.30
69895;DHT22;57172;52.034;5.090;2022-07-17T02:05:06;15.10;65.20
69895;DHT22;57172;52.034;5.090;2022-07-17T02:07:34;15.10;65.40
69895;DHT22;57172;52.034;5.090;2022-07-17T02:10:03;15.10;65.40
69895;DHT22;57172;52.034;5.090;2022-07-17T02:12:30;15.00;65.50
69895;DHT22;57172;52.034;5.090;2022-07-17T02:14:57;15.00;65.70
69895;DHT22;57172;52.034;5.090;2022-07-17T02:17:24;14.90;65.80
69895;DHT22;57172;52.034;5.090;2022-07-17T02:19:51;14.90;65.80
69895;DHT22;57172;52.034;5.090;2022-07-17T02:22:17;14.90;65.90
69895;DHT22;57172;52.034;5.090;2022-07-17T02:24:44;14.90;65.80
69895;DHT22;57172;52.034;5.090;2022-07-17T02:27:11;14.80;65.90
69895;DHT22;57172;52.034;5.090;2022-07-17T02:29:38;14.80;66.00
69895;DHT22;57172;52.034;5.090;2022-07-17T02:32:05;14.80;65.90
69895;DHT22;57172;52.034;5.090;2022-07-17T02:34:32;14.80;65.80
69895;DHT22;57172;52.034;5.090;2022-07-17T02:36:59;14.70;65.90
69895;DHT22;57172;52.034;5.090;2022-07-17T02:39:26;14.70;66.00
69895;DHT22;57172;52.034;5.090;2022-07-17T02:41:53;14.70;66.10
69895;DHT22;57172;52.034;5.090;2022-07-17T02:44:19;14.70;66.10
69895;DHT22;57172;52.034;5.090;2022-07-17T02:46:46;14.70;66.00
69895;DHT22;57172;52.034;5.090;2022-07-17T02:49:13;14.60;66.10
69895;DHT22;57172;52.034;5.090;2022-07-17T02:51:40;14.60;66.10
69895;DHT22;57172;52.034;5.090;2022-07-17T02:54:07;14.60;66.00
69895;DHT22;57172;52.034;5.090;2022-07-17T02:56:34;14.60;66.10
69895;DHT22;57172;52.034;5.090;2022-07-17T02:59:01;14.50;66.20
69895;DHT22;57172;52.034;5.090;2022-07-17T03:01:27;14.50;66.20
69895;DHT22;57172;52.034;5.090;2022-07-17T03:03:55;14.50;66.30
69895;DHT22;57172;52.034;5.090;2022-07-17T03:06:22;14.50;66.30
69895;DHT22;57172;52.034;5.090;2022-07-17T03:08:48;14.40;66.30
69895;DHT22;57172;52.034;5.090;2022-07-17T03:11:17;14.40;66.50
69895;DHT22;57172;52.034;5.090;2022-07-17T03:13:44;14.40;66.50
69895;DHT22;57172;52.034;5.090;2022-07-17T03:16:10;14.40;66.50
69895;DHT22;57172;52.034;5.090;2022-07-17T03:18:38;14.30;66.60
69895;DHT22;57172;52.034;5.090;2022-07-17T03:21:05;14.30;66.50
69895;DHT22;57172;52.034;5.090;2022-07-17T03:23:32;14.30;66.50
69895;DHT22;57172;52.034;5.090;2022-07-17T03:25:59;14.20;66.50
69895;DHT22;57172;52.034;5.090;2022-07-17T03:28:26;14.20;66.70
69895;DHT22;57172;52.034;5.090;2022-07-17T03:30:52;14.20;66.60
69895;DHT22;57172;52.034;5.090;2022-07-17T03:33:19;14.20;66.60
69895;DHT22;57172;52.034;5.090;2022-07-17T03:35:46;14.20;66.60
69895;DHT22;57172;52.034;5.090;2022-07-17T03:38:13;14.20;66.60
69895;DHT22;57172;52.034;5.090;2022-07-17T03:40:40;14.20;66.60
69895;DHT22;57172;52.034;5.090;2022-07-17T03:43:07;14.20;66.80
69895;DHT22;57172;52.034;5.090;2022-07-17T03:45:34;14.20;66.90
69895;DHT22;57172;52.034;5.090;2022-07-17T03:48:01;14.20;67.00
69895;DHT22;57172;52.034;5.090;2022-07-17T03:50:28;14.10;66.80
69895;DHT22;57172;52.034;5.090;2022-07-17T03:52:55;14.10;66.80
69895;DHT22;57172;52.034;5.090;2022-07-17T03:55:22;14.10;66.80
69895;DHT22;57172;52.034;5.090;2022-07-17T03:57:49;14.10;66.90
69895;DHT22;57172;52.034;5.090;2022-07-17T04:00:17;14.10;67.00
69895;DHT22;57172;52.034;5.090;2022-07-17T04:02:44;14.10;67.10
69895;DHT22;57172;52.034;5.090;2022-07-17T04:05:11;14.10;67.10
69895;DHT22;57172;52.034;5.090;2022-07-17T04:07:39;14.10;67.10
69895;DHT22;57172;52.034;5.090;2022-07-17T04:10:08;14.10;67.20
69895;DHT22;57172;52.034;5.090;2022-07-17T04:12:36;14.10;67.30
69895;DHT22;57172;52.034;5.090;2022-07-17T04:15:04;14.20;67.30
69895;DHT22;57172;52.034;5.090;2022-07-17T04:17:32;14.20;67.30
69895;DHT22;57172;52.034;5.090;2022-07-17T04:19:59;14.20;67.40
69895;DHT22;57172;52.034;5.090;2022-07-17T04:22:26;14.20;67.30
69895;DHT22;57172;52.034;5.090;2022-07-17T04:24:52;14.20;67.40
69895;DHT22;57172;52.034;5.090;2022-07-17T04:27:19;14.20;67.40
69895;DHT22;57172;52.034;5.090;2022-07-17T04:29:46;14.20;67.40
69895;DHT22;57172;52.034;5.090;2022-07-17T04:32:13;14.20;67.50
69895;DHT22;57172;52.034;5.090;2022-07-17T04:34:40;14.20;67.60
69895;DHT22;57172;52.034;5.090;2022-07-17T04:37:07;14.20;67.60
69895;DHT22;57172;52.034;5.090;2022-07-17T04:39:34;14.20;67.70
69895;DHT22;57172;52.034;5.090;2022-07-17T04:42:00;14.30;67.70
69895;DHT22;57172;52.034;5.090;2022-07-17T04:44:27;14.30;67.70
69895;DHT22;57172;52.034;5.090;2022-07-17T04:46:54;14.30;67.70
69895;DHT22;57172;52.034;5.090;2022-07-17T04:49:23;14.40;67.70
69895;DHT22;57172;52.034;5.090;2022-07-17T04:51:49;14.40;67.70
69895;DHT22;57172;52.034;5.090;2022-07-17T04:54:16;14.40;67.60
69895;DHT22;57172;52.034;5.090;2022-07-17T04:56:43;14.40;67.40
69895;DHT22;57172;52.034;5.090;2022-07-17T04:59:10;14.50;67.40
69895;DHT22;57172;52.034;5.090;2022-07-17T05:01:37;14.50;67.30
69895;DHT22;57172;52.034;5.090;2022-07-17T05:04:04;14.50;67.40
69895;DHT22;57172;52.034;5.090;2022-07-17T05:06:31;14.60;67.20
69895;DHT22;57172;52.034;5.090;2022-07-17T05:08:58;14.60;67.00
69895;DHT22;57172;52.034;5.090;2022-07-17T05:11:25;14.70;66.90
69895;DHT22;57172;52.034;5.090;2022-07-17T05:13:52;14.70;66.90
69895;DHT22;57172;52.034;5.090;2022-07-17T05:16:19;14.80;66.80
69895;DHT22;57172;52.034;5.090;2022-07-17T05:18:46;14.80;66.70
69895;DHT22;57172;52.034;5.090;2022-07-17T05:21:13;14.80;66.70
69895;DHT22;57172;52.034;5.090;2022-07-17T05:23:41;14.90;66.60
69895;DHT22;57172;52.034;5.090;2022-07-17T05:26:08;14.90;66.60
69895;DHT22;57172;52.034;5.090;2022-07-17T05:28:35;15.00;66.50
69895;DHT22;57172;52.034;5.090;2022-07-17T05:31:04;15.00;66.40
69895;DHT22;57172;52.034;5.090;2022-07-17T05:33:32;15.10;66.40
69895;DHT22;57172;52.034;5.090;2022-07-17T05:35:59;15.10;66.40
69895;DHT22;57172;52.034;5.090;2022-07-17T05:38:26;15.30;66.30
69895;DHT22;57172;52.034;5.090;2022-07-17T05:40:53;15.30;66.20
69895;DHT22;57172;52.034;5.090;2022-07-17T05:43:20;15.40;66.10
69895;DHT22;57172;52.034;5.090;2022-07-17T05:45:47;15.50;65.80
69895;DHT22;57172;52.034;5.090;2022-07-17T05:48:13;15.60;65.50
69895;DHT22;57172;52.034;5.090;2022-07-17T05:50:40;15.60;65.10
69895;DHT22;57172;52.034;5.090;2022-07-17T05:53:07;15.60;64.70
69895;DHT22;57172;52.034;5.090;2022-07-17T05:55:34;15.60;64.50
69895;DHT22;57172;52.034;5.090;2022-07-17T05:58:01;15.70;64.50
69895;DHT22;57172;52.034;5.090;2022-07-17T06:00:28;15.70;64.20
69895;DHT22;57172;52.034;5.090;2022-07-17T06:02:55;15.70;64.10
69895;DHT22;57172;52.034;5.090;2022-07-17T06:05:22;15.80;64.00
69895;DHT22;57172;52.034;5.090;2022-07-17T06:07:49;15.80;64.00
69895;DHT22;57172;52.034;5.090;2022-07-17T06:10:16;15.90;63.80
69895;DHT22;57172;52.034;5.090;2022-07-17T06:12:43;15.90;63.70
69895;DHT22;57172;52.034;5.090;2022-07-17T06:15:10;16.00;63.40
69895;DHT22;57172;52.034;5.090;2022-07-17T06:17:38;16.00;63.10
69895;DHT22;57172;52.034;5.090;2022-07-17T06:20:10;16.10;62.70
69895;DHT22;57172;52.034;5.090;2022-07-17T06:22:37;16.20;62.70
69895;DHT22;57172;52.034;5.090;2022-07-17T06:25:05;16.20;62.40
69895;DHT22;57172;52.034;5.090;2022-07-17T06:27:32;16.30;62.10
69895;DHT22;57172;52.034;5.090;2022-07-17T06:29:59;16.40;61.80
69895;DHT22;57172;52.034;5.090;2022-07-17T06:32:26;16.50;61.20
69895;DHT22;57172;52.034;5.090;2022-07-17T06:34:53;16.50;61.00
69895;DHT22;57172;52.034;5.090;2022-07-17T06:37:20;16.60;60.90
69895;DHT22;57172;52.034;5.090;2022-07-17T06:39:47;16.60;60.70
69895;DHT22;57172;52.034;5.090;2022-07-17T06:42:14;16.70;60.60
69895;DHT22;57172;52.034;5.090;2022-07-17T06:44:41;16.80;60.20
69895;DHT22;57172;52.034;5.090;2022-07-17T06:47:07;16.90;59.80
69895;DHT22;57172;52.034;5.090;2022-07-17T06:49:34;17.00;59.50
69895;DHT22;57172;52.034;5.090;2022-07-17T06:52:01;17.10;59.40
69895;DHT22;57172;52.034;5.090;2022-07-17T06:54:28;17.10;58.70
69895;DHT22;57172;52.034;5.090;2022-07-17T06:56:55;17.20;58.50
69895;DHT22;57172;52.034;5.090;2022-07-17T06:59:22;17.30;58.40
69895;DHT22;57172;52.034;5.090;2022-07-17T07:01:49;17.40;58.20
69895;DHT22;57172;52.034;5.090;2022-07-17T07:04:16;17.40;58.20
69895;DHT22;57172;52.034;5.090;2022-07-17T07:06:43;17.50;58.30
69895;DHT22;57172;52.034;5.090;2022-07-17T07:09:10;17.60;58.30
69895;DHT22;57172;52.034;5.090;2022-07-17T07:11:43;17.70;58.20
69895;DHT22;57172;52.034;5.090;2022-07-17T07:14:10;17.90;58.00
69895;DHT22;57172;52.034;5.090;2022-07-17T07:16:37;17.90;58.00
69895;DHT22;57172;52.034;5.090;2022-07-17T07:19:04;18.00;57.80
69895;DHT22;57172;52.034;5.090;2022-07-17T07:21:31;18.10;57.20
69895;DHT22;57172;52.034;5.090;2022-07-17T07:23:58;18.20;57.10
69895;DHT22;57172;52.034;5.090;2022-07-17T07:26:25;18.30;56.70
69895;DHT22;57172;52.034;5.090;2022-07-17T07:28:52;18.40;56.60
69895;DHT22;57172;52.034;5.090;2022-07-17T07:31:19;18.50;56.30
69895;DHT22;57172;52.034;5.090;2022-07-17T07:33:46;18.60;56.20
69895;DHT22;57172;52.034;5.090;2022-07-17T07:36:13;18.60;56.20
69895;DHT22;57172;52.034;5.090;2022-07-17T07:38:45;18.70;56.00
69895;DHT22;57172;52.034;5.090;2022-07-17T07:41:12;18.80;56.10
69895;DHT22;57172;52.034;5.090;2022-07-17T07:43:39;18.90;56.00
69895;DHT22;57172;52.034;5.090;2022-07-17T07:46:06;19.00;55.60
69895;DHT22;57172;52.034;5.090;2022-07-17T07:48:33;19.10;55.70
69895;DHT22;57172;52.034;5.090;2022-07-17T07:51:01;19.20;55.10
69895;DHT22;57172;52.034;5.090;2022-07-17T07:53:27;19.30;55.10
69895;DHT22;57172;52.034;5.090;2022-07-17T07:55:54;19.30;55.00
69895;DHT22;57172;52.034;5.090;2022-07-17T07:58:21;19.50;54.70
69895;DHT22;57172;52.034;5.090;2022-07-17T08:00:48;19.50;54.80
69895;DHT22;57172;52.034;5.090;2022-07-17T08:03:15;19.70;54.70
69895;DHT22;57172;52.034;5.090;2022-07-17T08:05:50;19.80;53.90
69895;DHT22;57172;52.034;5.090;2022-07-17T08:08:17;19.90;53.20
69895;DHT22;57172;52.034;5.090;2022-07-17T08:10:44;19.90;53.00
69895;DHT22;57172;52.034;5.090;2022-07-17T08:13:11;20.00;53.00
69895;DHT22;57172;52.034;5.090;2022-07-17T08:15:38;20.10;52.50
69895;DHT22;57172;52.034;5.090;2022-07-17T08:18:05;20.20;52.30
69895;DHT22;57172;52.034;5.090;2022-07-17T08:20:33;20.30;52.30
69895;DHT22;57172;52.034;5.090;2022-07-17T08:23:00;20.40;51.60
69895;DHT22;57172;52.034;5.090;2022-07-17T08:25:31;20.50;51.10
69895;DHT22;57172;52.034;5.090;2022-07-17T08:27:59;20.60;50.80
69895;DHT22;57172;52.034;5.090;2022-07-17T08:30:26;20.70;50.90
69895;DHT22;57172;52.034;5.090;2022-07-17T08:32:53;20.80;51.00
69895;DHT22;57172;52.034;5.090;2022-07-17T08:35:20;21.00;50.20
69895;DHT22;57172;52.034;5.090;2022-07-17T08:37:50;21.10;50.30
69895;DHT22;57172;52.034;5.090;2022-07-17T08:40:23;21.30;50.00
69895;DHT22;57172;52.034;5.090;2022-07-17T08:42:51;21.50;49.40
69895;DHT22;57172;52.034;5.090;2022-07-17T08:45:18;21.70;49.40
69895;DHT22;57172;52.034;5.090;2022-07-17T08:47:45;21.90;48.90
69895;DHT22;57172;52.034;5.090;2022-07-17T08:50:13;22.20;49.10
69895;DHT22;57172;52.034;5.090;2022-07-17T08:52:41;22.80;49.70
69895;DHT22;57172;52.034;5.090;2022-07-17T08:55:12;23.60;48.90
69895;DHT22;57172;52.034;5.090;2022-07-17T08:57:41;24.40;46.80
69895;DHT22;57172;52.034;5.090;2022-07-17T09:00:17;25.10;45.50
69895;DHT22;57172;52.034;5.090;2022-07-17T09:02:57;25.70;43.70
69895;DHT22;57172;52.034;5.090;2022-07-17T09:05:27;26.20;42.20
69895;DHT22;57172;52.034;5.090;2022-07-17T09:07:54;26.60;41.90
69895;DHT22;57172;52.034;5.090;2022-07-17T09:10:40;27.10;41.60
69895;DHT22;57172;52.034;5.090;2022-07-17T09:13:14;27.80;40.50
69895;DHT22;57172;52.034;5.090;2022-07-17T09:15:42;28.50;39.50
69895;DHT22;57172;52.034;5.090;2022-07-17T09:18:11;28.90;38.80
69895;DHT22;57172;52.034;5.090;2022-07-17T09:20:47;29.30;38.10
69895;DHT22;57172;52.034;5.090;2022-07-17T09:23:14;29.90;36.70
69895;DHT22;57172;52.034;5.090;2022-07-17T09:25:44;30.40;36.50
69895;DHT22;57172;52.034;5.090;2022-07-17T09:28:13;30.80;35.90
69895;DHT22;57172;52.034;5.090;2022-07-17T09:30:45;31.10;35.50
69895;DHT22;57172;52.034;5.090;2022-07-17T09:33:16;31.40;35.20
69895;DHT22;57172;52.034;5.090;2022-07-17T09:38:13;31.90;34.20
69895;DHT22;57172;52.034;5.090;2022-07-17T09:41:04;32.20;33.90
69895;DHT22;57172;52.034;5.090;2022-07-17T09:46:20;32.90;32.80
69895;DHT22;57172;52.034;5.090;2022-07-17T09:48:56;33.20;32.50
69895;DHT22;57172;52.034;5.090;2022-07-17T09:51:25;33.40;31.90
69895;DHT22;57172;52.034;5.090;2022-07-17T09:53:55;33.70;32.00
69895;DHT22;57172;52.034;5.090;2022-07-17T09:56:25;34.00;31.70
69895;DHT22;57172;52.034;5.090;2022-07-17T09:58:55;34.20;31.10
69895;DHT22;57172;52.034;5.090;2022-07-17T10:01:23;34.40;30.90
69895;DHT22;57172;52.034;5.090;2022-07-17T10:03:51;34.50;30.80
69895;DHT22;57172;52.034;5.090;2022-07-17T10:06:25;34.60;30.50
69895;DHT22;57172;52.034;5.090;2022-07-17T10:08:54;34.80;30.30
69895;DHT22;57172;52.034;5.090;2022-07-17T10:11:23;35.00;30.10
69895;DHT22;57172;52.034;5.090;2022-07-17T10:13:52;35.30;29.80
69895;DHT22;57172;52.034;5.090;2022-07-17T10:16:29;35.50;29.50
69895;DHT22;57172;52.034;5.090;2022-07-17T10:18:57;35.60;29.10
69895;DHT22;57172;52.034;5.090;2022-07-17T10:21:26;35.90;28.90
69895;DHT22;57172;52.034;5.090;2022-07-17T10:26:41;36.20;28.50
69895;DHT22;57172;52.034;5.090;2022-07-17T10:32:00;35.90;27.90
69895;DHT22;57172;52.034;5.090;2022-07-17T10:34:49;35.40;29.10
69895;DHT22;57172;52.034;5.090;2022-07-17T10:42:46;35.90;28.20
69895;DHT22;57172;52.034;5.090;2022-07-17T10:45:18;35.90;28.20
69895;DHT22;57172;52.034;5.090;2022-07-17T10:47:46;35.60;28.30
69895;DHT22;57172;52.034;5.090;2022-07-17T10:50:14;35.50;28.80
69895;DHT22;57172;52.034;5.090;2022-07-17T10:52:41;35.80;28.90
69895;DHT22;57172;52.034;5.090;2022-07-17T10:55:20;36.10;28.80
69895;DHT22;57172;52.034;5.090;2022-07-17T10:57:47;36.50;27.70
69895;DHT22;57172;52.034;5.090;2022-07-17T11:00:16;36.70;28.20
69895;DHT22;57172;52.034;5.090;2022-07-17T11:02:44;37.20;28.20
69895;DHT22;57172;52.034;5.090;2022-07-17T11:05:13;37.60;27.60
69895;DHT22;57172;52.034;5.090;2022-07-17T11:07:56;38.00;27.00
69895;DHT22;57172;52.034;5.090;2022-07-17T11:10:24;38.40;27.20
69895;DHT22;57172;52.034;5.090;2022-07-17T11:13:06;38.60;26.80
69895;DHT22;57172;52.034;5.090;2022-07-17T11:15:47;38.70;26.50
69895;DHT22;57172;52.034;5.090;2022-07-17T11:18:18;38.40;26.20
69895;DHT22;57172;52.034;5.090;2022-07-17T11:20:53;38.50;26.50
69895;DHT22;57172;52.034;5.090;2022-07-17T11:23:22;38.70;26.20
69895;DHT22;57172;52.034;5.090;2022-07-17T11:31:02;39.20;25.60
69895;DHT22;57172;52.034;5.090;2022-07-17T11:33:30;39.30;25.80
69895;DHT22;57172;52.034;5.090;2022-07-17T11:35:57;39.40;25.40
69895;DHT22;57172;52.034;5.090;2022-07-17T11:38:26;39.40;25.60
69895;DHT22;57172;52.034;5.090;2022-07-17T11:40:53;39.40;25.30
69895;DHT22;57172;52.034;5.090;2022-07-17T11:43:27;39.40;25.10
69895;DHT22;57172;52.034;5.090;2022-07-17T11:45:54;39.40;25.20
69895;DHT22;57172;52.034;5.090;2022-07-17T11:48:22;39.50;25.30
69895;DHT22;57172;52.034;5.090;2022-07-17T11:50:54;39.40;25.00
69895;DHT22;57172;52.034;5.090;2022-07-17T11:53:31;39.20;24.40
69895;DHT22;57172;52.034;5.090;2022-07-17T11:55:58;39.00;25.00
69895;DHT22;57172;52.034;5.090;2022-07-17T11:58:26;39.10;25.40
69895;DHT22;57172;52.034;5.090;2022-07-17T12:01:03;39.30;25.10
69895;DHT22;57172;52.034;5.090;2022-07-17T12:03:30;39.50;24.80
69895;DHT22;57172;52.034;5.090;2022-07-17T12:05:58;39.50;25.00
69895;DHT22;57172;52.034;5.090;2022-07-17T12:08:25;39.70;24.90
69895;DHT22;57172;52.034;5.090;2022-07-17T12:11:03;39.90;24.40
69895;DHT22;57172;52.034;5.090;2022-07-17T12:13:42;39.90;24.60
69895;DHT22;57172;52.034;5.090;2022-07-17T12:19:22;40.10;24.40
69895;DHT22;57172;52.034;5.090;2022-07-17T12:22:02;40.10;24.10
69895;DHT22;57172;52.034;5.090;2022-07-17T12:24:33;40.20;24.30
69895;DHT22;57172;52.034;5.090;2022-07-17T12:27:02;40.40;24.10
69895;DHT22;57172;52.034;5.090;2022-07-17T12:29:29;40.30;24.20
69895;DHT22;57172;52.034;5.090;2022-07-17T12:32:10;40.40;24.20
69895;DHT22;57172;52.034;5.090;2022-07-17T12:34:41;40.60;23.90
69895;DHT22;57172;52.034;5.090;2022-07-17T12:37:19;40.90;23.30
69895;DHT22;57172;52.034;5.090;2022-07-17T12:39:47;41.10;23.10
69895;DHT22;57172;52.034;5.090;2022-07-17T12:42:16;41.30;23.60
69895;DHT22;57172;52.034;5.090;2022-07-17T12:44:43;41.40;23.10
69895;DHT22;57172;52.034;5.090;2022-07-17T12:47:11;41.40;23.10
69895;DHT22;57172;52.034;5.090;2022-07-17T12:49:38;41.40;23.20
69895;DHT22;57172;52.034;5.090;2022-07-17T12:52:08;41.30;23.10
69895;DHT22;57172;52.034;5.090;2022-07-17T12:54:35;40.90;23.10
69895;DHT22;57172;52.034;5.090;2022-07-17T12:57:02;40.70;23.40
69895;DHT22;57172;52.034;5.090;2022-07-17T12:59:28;40.70;23.40
69895;DHT22;57172;52.034;5.090;2022-07-17T13:01:56;40.70;23.10
69895;DHT22;57172;52.034;5.090;2022-07-17T13:04:23;40.60;23.20
69895;DHT22;57172;52.034;5.090;2022-07-17T13:06:51;40.60;23.30
69895;DHT22;57172;52.034;5.090;2022-07-17T13:09:18;40.90;23.50
69895;DHT22;57172;52.034;5.090;2022-07-17T13:11:50;41.10;22.40
69895;DHT22;57172;52.034;5.090;2022-07-17T13:14:18;40.40;23.40
69895;DHT22;57172;52.034;5.090;2022-07-17T13:16:45;40.50;23.90
69895;DHT22;57172;52.034;5.090;2022-07-17T13:19:12;40.60;23.60
69895;DHT22;57172;52.034;5.090;2022-07-17T13:21:39;40.70;23.50
69895;DHT22;57172;52.034;5.090;2022-07-17T13:24:06;40.70;23.80
69895;DHT22;57172;52.034;5.090;2022-07-17T13:26:33;40.70;23.30
69895;DHT22;57172;52.034;5.090;2022-07-17T13:29:01;40.60;23.30
69895;DHT22;57172;52.034;5.090;2022-07-17T13:31:28;40.60;24.00
69895;DHT22;57172;52.034;5.090;2022-07-17T13:33:55;40.70;23.70
69895;DHT22;57172;52.034;5.090;2022-07-17T13:36:22;40.80;23.80
69895;DHT22;57172;52.034;5.090;2022-07-17T13:38:49;40.80;24.00
69895;DHT22;57172;52.034;5.090;2022-07-17T13:41:16;41.00;24.20
69895;DHT22;57172;52.034;5.090;2022-07-17T13:43:43;41.20;23.60
69895;DHT22;57172;52.034;5.090;2022-07-17T13:46:10;41.10;22.80
69895;DHT22;57172;52.034;5.090;2022-07-17T13:48:37;40.80;23.40
69895;DHT22;57172;52.034;5.090;2022-07-17T13:51:04;40.80;23.30
69895;DHT22;57172;52.034;5.090;2022-07-17T13:53:32;41.00;23.10
69895;DHT22;57172;52.034;5.090;2022-07-17T13:55:59;41.00;22.90
69895;DHT22;57172;52.034;5.090;2022-07-17T13:58:26;41.10;22.90
69895;DHT22;57172;52.034;5.090;2022-07-17T14:00:53;41.00;22.70
69895;DHT22;57172;52.034;5.090;2022-07-17T14:03:20;41.10;22.50
69895;DHT22;57172;52.034;5.090;2022-07-17T14:05:48;41.00;22.00
69895;DHT22;57172;52.034;5.090;2022-07-17T14:08:15;40.60;22.70
69895;DHT22;57172;52.034;5.090;2022-07-17T14:10:42;40.50;22.20
69895;DHT22;57172;52.034;5.090;2022-07-17T14:13:09;40.50;22.70
69895;DHT22;57172;52.034;5.090;2022-07-17T14:15:37;40.50;22.60
69895;DHT22;57172;52.034;5.090;2022-07-17T14:18:03;40.50;22.90
69895;DHT22;57172;52.034;5.090;2022-07-17T14:20:30;40.50;22.80
69895;DHT22;57172;52.034;5.090;2022-07-17T14:22:57;40.50;22.90
69895;DHT22;57172;52.034;5.090;2022-07-17T14:25:24;40.60;22.60
69895;DHT22;57172;52.034;5.090;2022-07-17T14:27:51;40.50;22.70
69895;DHT22;57172;52.034;5.090;2022-07-17T14:30:18;40.10;23.20
69895;DHT22;57172;52.034;5.090;2022-07-17T14:32:47;39.80;23.50
69895;DHT22;57172;52.034;5.090;2022-07-17T14:35:14;39.80;23.40
69895;DHT22;57172;52.034;5.090;2022-07-17T14:37:41;39.60;23.30
69895;DHT22;57172;52.034;5.090;2022-07-17T14:40:11;39.40;23.20
69895;DHT22;57172;52.034;5.090;2022-07-17T14:42:39;39.10;23.90
69895;DHT22;57172;52.034;5.090;2022-07-17T14:45:07;38.80;23.70
69895;DHT22;57172;52.034;5.090;2022-07-17T14:47:34;38.30;24.30
69895;DHT22;57172;52.034;5.090;2022-07-17T14:50:02;38.20;24.80
69895;DHT22;57172;52.034;5.090;2022-07-17T14:52:29;38.50;24.50
69895;DHT22;57172;52.034;5.090;2022-07-17T14:54:56;38.80;24.20
69895;DHT22;57172;52.034;5.090;2022-07-17T14:57:23;39.00;24.20
69895;DHT22;57172;52.034;5.090;2022-07-17T14:59:50;39.10;24.20
69895;DHT22;57172;52.034;5.090;2022-07-17T15:02:17;39.20;24.00
69895;DHT22;57172;52.034;5.090;2022-07-17T15:04:45;39.10;23.70
69895;DHT22;57172;52.034;5.090;2022-07-17T15:07:12;39.00;23.50
69895;DHT22;57172;52.034;5.090;2022-07-17T15:09:39;39.00;23.70
69895;DHT22;57172;52.034;5.090;2022-07-17T15:12:06;39.10;24.00
69895;DHT22;57172;52.034;5.090;2022-07-17T15:14:33;39.00;23.40
69895;DHT22;57172;52.034;5.090;2022-07-17T15:17:00;38.70;23.50
69895;DHT22;57172;52.034;5.090;2022-07-17T15:19:26;38.60;23.70
69895;DHT22;57172;52.034;5.090;2022-07-17T15:21:53;38.50;23.70
69895;DHT22;57172;52.034;5.090;2022-07-17T15:24:21;38.30;23.60
69895;DHT22;57172;52.034;5.090;2022-07-17T15:26:48;38.00;23.50
69895;DHT22;57172;52.034;5.090;2022-07-17T15:29:16;37.60;23.20
69895;DHT22;57172;52.034;5.090;2022-07-17T15:31:43;37.10;24.00
69895;DHT22;57172;52.034;5.090;2022-07-17T15:34:10;36.80;23.90
69895;DHT22;57172;52.034;5.090;2022-07-17T15:36:38;36.80;24.20
69895;DHT22;57172;52.034;5.090;2022-07-17T15:39:05;36.80;24.30
69895;DHT22;57172;52.034;5.090;2022-07-17T15:41:33;36.90;24.20
69895;DHT22;57172;52.034;5.090;2022-07-17T15:44:01;37.10;24.40
69895;DHT22;57172;52.034;5.090;2022-07-17T15:46:28;37.20;23.80
69895;DHT22;57172;52.034;5.090;2022-07-17T15:48:55;37.00;24.10
69895;DHT22;57172;52.034;5.090;2022-07-17T15:51:22;36.90;23.90
69895;DHT22;57172;52.034;5.090;2022-07-17T15:53:49;36.80;24.00
69895;DHT22;57172;52.034;5.090;2022-07-17T15:56:17;36.90;23.90
69895;DHT22;57172;52.034;5.090;2022-07-17T15:58:45;37.00;23.90
69895;DHT22;57172;52.034;5.090;2022-07-17T16:01:12;37.00;24.00